메인 페이지
METAR-TAF:

METAR-TAF

공항 :

괄리오르, 인도

위도: 26-17-36N, 경도: 78-13-40E, 고도: 188m

현재 날씨관측

예보는 3 시간 38분 전, 19:30시(UTC)에 발표되었습니다.
여러 방향의 바람 1kt
온도 30°C
습도 31%
기압 1008 hPa
시정: 6000m
고도 10000ft 상공 구름 조금

METAR: VIGR 231930Z VRB01KT 6000 FEW100 30/11 Q1008 NOSIG

시각: 04:38 (23:08 UTC)

예보

예보는 13 시간 38분 전, 09:30시(UTC)에 발표되었습니다.
예보 대상 시간: 23일 12시부터 24일 00시까지 (UTC)
서북서10kt
시정: 6000m
고도 3000ft 상공 구름 조금
전환 중
23일 15시부터 23일 16시까지 (UTC)
여러 방향의 바람 2kt
시정: 6000m
고도 4000ft 상공 구름 조금
전환 중
23일 23시부터 23일 24시까지 (UTC)
여러 방향의 바람 2kt
시정: 5000m
연무

TAF: VIGR 230930Z 2312/2400 30010KT 6000 FEW030 FEW TCU040 BECMG 2315/2316 VRB02KT 6000 FEW040 BECMG 2323/2324 VRB02KT 5000 HZ

4,000개 이상의 공항 관측 자료 및 예보 (METAR 및 TAF 보고).

지도상에서 검색 가능한 기상관측소가 노란 점과 빨간 점으로 표시되어 있습니다.

기상관측소 명을 보려면 표시 위로 마우스를 이동하세요.

날씨 관측과 예보를 보려면 클릭하세요.

지도 변경 : 확대하려면 엑스 표시가 있는 녹색 버튼, 축소하려면 빼기 표시가 있는 녹색 버튼, 다음 페이지의 지도를 보려면 녹색 화살표를 클릭하세요.


METAR-TAF: